createdAt,value
2022-09-28T00:02:11.965Z,99226.66
2022-09-28T00:05:15.156Z,99230.16
2022-09-28T00:08:17.945Z,99221.94
2022-09-28T00:11:22.726Z,99219.19
2022-09-28T00:14:26.404Z,99223.91
2022-09-28T00:17:29.428Z,99232.13
2022-09-28T00:20:32.024Z,99236.06
2022-09-28T00:23:56.230Z,99244.69
2022-09-28T00:27:01.399Z,99254.87
2022-09-28T00:30:04.671Z,99254.06
2022-09-28T00:33:07.300Z,99258.03
2022-09-28T00:36:10.177Z,99257.19
2022-09-28T00:39:15.542Z,99272.47
2022-09-28T00:42:21.466Z,99273.28
2022-09-28T00:45:26.783Z,99270.56
2022-09-28T00:48:34.319Z,99268.56
2022-09-28T00:51:40.999Z,99270.94
2022-09-28T00:54:47.513Z,99268.19
2022-09-28T00:57:55.983Z,99267.38
2022-09-28T01:00:59.743Z,99267.38
2022-09-28T01:04:04.130Z,99257.97
2022-09-28T01:07:09.185Z,99254.44
2022-09-28T01:10:13.179Z,99232.91
2022-09-28T01:13:17.665Z,99245.81
2022-09-28T01:16:23.650Z,99243.88
2022-09-28T01:19:47.790Z,99249.38
2022-09-28T01:22:53.887Z,99254.13
2022-09-28T01:26:25.448Z,99249.81
2022-09-28T01:29:34.162Z,99235.75
2022-09-28T01:32:46.470Z,99236.53
2022-09-28T01:35:55.659Z,99237.69
2022-09-28T01:39:05.611Z,99231.81
2022-09-28T01:42:19.943Z,99231.81
2022-09-28T01:46:09.547Z,99251.03
2022-09-28T01:49:21.550Z,99244.75
2022-09-28T01:52:31.749Z,99249.88
2022-09-28T01:55:41.879Z,99245.19
2022-09-28T01:59:20.460Z,99269.44
2022-09-28T02:02:32.585Z,99266.34
2022-09-28T02:05:49.272Z,99260.84
2022-09-28T02:08:57.887Z,99260.84
2022-09-28T02:12:13.289Z,99261.63
2022-09-28T02:15:23.123Z,99270.28
2022-09-28T02:18:26.058Z,99280.44
2022-09-28T02:21:52.666Z,99281.62
2022-09-28T02:25:13.812Z,99284.00
2022-09-28T02:28:16.566Z,99283.63
2022-09-28T02:31:19.542Z,99292.22
2022-09-28T02:34:22.567Z,99290.25
2022-09-28T02:37:27.857Z,99288.69
2022-09-28T02:40:33.744Z,99294.16
2022-09-28T02:43:58.412Z,99294.59
2022-09-28T02:47:26.179Z,99290.69
2022-09-28T02:51:00.502Z,99275.41
2022-09-28T02:54:18.928Z,99275.81
2022-09-28T02:57:46.510Z,99276.19
2022-09-28T03:01:03.297Z,99289.12
2022-09-28T03:04:12.106Z,99290.69
2022-09-28T03:07:33.483Z,99290.31
2022-09-28T03:10:47.312Z,99289.53
2022-09-28T03:13:51.848Z,99297.00
2022-09-28T03:16:55.065Z,99302.91
2022-09-28T03:19:57.703Z,99304.44
2022-09-28T03:23:23.159Z,99289.22
2022-09-28T03:26:23.978Z,99296.28
2022-09-28T03:29:26.815Z,99306.44
2022-09-28T03:32:29.938Z,99302.53
2022-09-28T03:35:32.849Z,99298.22
2022-09-28T03:38:35.558Z,99295.47
2022-09-28T03:41:38.519Z,99293.09
2022-09-28T03:44:41.314Z,99308.00
2022-09-28T03:47:48.709Z,99304.84
2022-09-28T03:50:56.051Z,99304.09
2022-09-28T03:53:58.925Z,99286.50
2022-09-28T03:57:01.687Z,99281.00
2022-09-28T04:00:06.221Z,99290.78
2022-09-28T04:03:16.271Z,99313.91
2022-09-28T04:06:19.168Z,99321.75
2022-09-28T04:09:21.800Z,99325.28
2022-09-28T04:12:24.772Z,99327.63
2022-09-28T04:15:27.469Z,99328.03
2022-09-28T04:18:31.589Z,99331.94
2022-09-28T04:21:37.697Z,99334.69
2022-09-28T04:24:43.487Z,99333.53
2022-09-28T04:28:04.978Z,99333.13
2022-09-28T04:31:13.380Z,99340.94
2022-09-28T04:34:21.551Z,99325.31
2022-09-28T04:37:24.988Z,99332.72
2022-09-28T04:40:27.780Z,99324.53
2022-09-28T04:43:32.141Z,99301.06
2022-09-28T04:46:35.807Z,99326.09
2022-09-28T04:49:40.035Z,99333.13
2022-09-28T04:52:42.757Z,99333.91
2022-09-28T04:55:45.748Z,99336.66
2022-09-28T04:58:52.608Z,99340.16
2022-09-28T05:01:56.054Z,99344.81
2022-09-28T05:05:00.118Z,99361.25
2022-09-28T05:08:03.120Z,99356.94
2022-09-28T05:11:08.013Z,99352.22
2022-09-28T05:14:12.092Z,99346.37
2022-09-28T05:17:15.139Z,99358.09
2022-09-28T05:20:19.619Z,99358.91
2022-09-28T05:23:22.165Z,99321.38
2022-09-28T05:26:25.408Z,99350.31
2022-09-28T05:29:31.946Z,99368.31
2022-09-28T05:32:42.419Z,99364.78
2022-09-28T05:35:49.797Z,99378.09
2022-09-28T05:38:55.486Z,99387.88
2022-09-28T05:41:58.260Z,99383.94
2022-09-28T05:45:01.167Z,99387.88
2022-09-28T05:48:03.882Z,99377.72
2022-09-28T05:51:06.800Z,99371.44
2022-09-28T05:54:09.481Z,99373.78
2022-09-28T05:57:14.550Z,99367.91
2022-09-28T06:00:21.422Z,99350.25
2022-09-28T06:03:25.377Z,99360.37
2022-09-28T06:06:28.156Z,99369.41
2022-09-28T06:09:32.155Z,99372.94
2022-09-28T06:12:35.550Z,99371.38
2022-09-28T06:15:42.294Z,99373.69
2022-09-28T06:18:46.156Z,99371.31
2022-09-28T06:21:49.549Z,99377.94
2022-09-28T06:24:52.147Z,99386.44
2022-09-28T06:27:56.755Z,99382.47
2022-09-28T06:31:01.155Z,99392.22
2022-09-28T06:34:04.655Z,99404.66
2022-09-28T06:37:07.281Z,99396.78
2022-09-28T06:40:10.867Z,99395.91
2022-09-28T06:43:15.471Z,99395.81
2022-09-28T06:46:23.808Z,99388.72
2022-09-28T06:49:30.273Z,99389.00
2022-09-28T06:52:34.914Z,99381.78
2022-09-28T06:55:40.728Z,99385.66
2022-09-28T06:58:43.808Z,99392.13
2022-09-28T07:01:46.767Z,99391.19
2022-09-28T07:04:52.247Z,99402.50
2022-09-28T07:08:02.035Z,99400.41
2022-09-28T07:11:08.821Z,99395.22
2022-09-28T07:14:24.056Z,99384.09
2022-09-28T07:17:42.997Z,99388.41
2022-09-28T07:20:57.086Z,99376.66
2022-09-28T07:24:01.148Z,99397.63
2022-09-28T07:27:06.243Z,99398.41
2022-09-28T07:30:09.926Z,99400.66
2022-09-28T07:33:15.943Z,99399.69
2022-09-28T07:36:20.897Z,99402.66
2022-09-28T07:39:24.788Z,99398.09
2022-09-28T07:42:29.968Z,99392.69
2022-09-28T07:45:35.904Z,99384.88
2022-09-28T07:48:43.974Z,99388.44
2022-09-28T07:51:46.831Z,99376.41
2022-09-28T07:54:52.183Z,99376.09
2022-09-28T07:58:02.284Z,99378.16
2022-09-28T08:01:11.818Z,99389.84
2022-09-28T08:04:15.682Z,99383.59
2022-09-28T08:07:24.242Z,99377.72
2022-09-28T08:10:29.229Z,99377.19
2022-09-28T08:13:32.443Z,99368.47
2022-09-28T08:16:35.471Z,99382.00
2022-09-28T08:19:58.157Z,99379.00
2022-09-28T08:23:08.780Z,99373.44
2022-09-28T08:26:15.359Z,99372.03
2022-09-28T08:29:19.116Z,99365.50
2022-09-28T08:32:26.446Z,99368.44
2022-09-28T08:35:29.676Z,99373.34
2022-09-28T08:38:33.585Z,99358.56
2022-09-28T08:41:53.623Z,99351.88
2022-09-28T08:45:06.208Z,99351.03
2022-09-28T08:48:56.907Z,99364.09
2022-09-28T08:52:13.873Z,99358.88
2022-09-28T08:55:28.730Z,99354.47
2022-09-28T08:58:37.924Z,99351.88
2022-09-28T09:01:48.584Z,99359.09
2022-09-28T09:04:52.713Z,99356.75
2022-09-28T09:08:33.225Z,99356.06
2022-09-28T09:12:14.701Z,99358.03
2022-09-28T09:15:36.399Z,99357.69
2022-09-28T09:19:02.930Z,99354.22
2022-09-28T09:22:16.907Z,99361.16
2022-09-28T09:25:38.309Z,99349.81
2022-09-28T09:29:02.147Z,99344.19
2022-09-28T09:32:14.591Z,99351.78
2022-09-28T09:35:58.951Z,99351.00
2022-09-28T09:39:17.933Z,99345.28
2022-09-28T09:42:44.639Z,99340.91
2022-09-28T09:46:14.790Z,99351.19
2022-09-28T09:49:34.752Z,99336.06
2022-09-28T09:52:57.338Z,99347.22
2022-09-28T09:56:11.369Z,99353.44
2022-09-28T09:59:21.916Z,99345.34
2022-09-28T10:02:39.296Z,99343.19
2022-09-28T10:06:08.139Z,99343.72
2022-09-28T10:09:22.463Z,99344.09
2022-09-28T10:12:26.344Z,99342.75
2022-09-28T10:15:32.030Z,99335.09
2022-09-28T10:18:37.024Z,99332.50
2022-09-28T10:21:43.624Z,99319.09
2022-09-28T10:24:52.491Z,99333.94
2022-09-28T10:27:57.755Z,99341.59
2022-09-28T10:31:01.808Z,99337.22
2022-09-28T10:34:06.143Z,99348.41
2022-09-28T10:37:11.255Z,99335.12
2022-09-28T10:40:30.592Z,99329.31
2022-09-28T10:43:38.607Z,99326.41
2022-09-28T10:46:41.826Z,99334.41
2022-09-28T10:49:48.523Z,99338.28
2022-09-28T10:52:51.622Z,99336.22
2022-09-28T10:56:05.331Z,99317.59
2022-09-28T10:59:29.034Z,99317.41
2022-09-28T11:02:36.602Z,99317.50
2022-09-28T11:05:40.103Z,99316.63
2022-09-28T11:08:45.584Z,99323.81
2022-09-28T11:11:48.870Z,99321.34
2022-09-28T11:15:01.531Z,99310.75
2022-09-28T11:18:32.435Z,99304.50
2022-09-28T11:21:44.107Z,99317.91
2022-09-28T11:24:48.315Z,99304.62
2022-09-28T11:27:51.091Z,99297.03
2022-09-28T11:30:54.665Z,99302.97
2022-09-28T11:34:15.064Z,99289.75
2022-09-28T11:37:31.342Z,99292.87
2022-09-28T11:40:43.731Z,99294.63
2022-09-28T11:44:00.392Z,99293.22
2022-09-28T11:47:41.839Z,99298.75
2022-09-28T11:50:53.511Z,99295.19
2022-09-28T11:54:05.219Z,99296.97
2022-09-28T11:57:15.939Z,99280.78
2022-09-28T12:00:23.408Z,99286.44
2022-09-28T12:03:46.454Z,99280.31
2022-09-28T12:07:07.837Z,99278.44
2022-09-28T12:10:20.981Z,99266.12
2022-09-28T12:13:29.744Z,99262.37
2022-09-28T12:17:07.376Z,99259.81
2022-09-28T12:20:29.298Z,99260.81
2022-09-28T12:23:36.051Z,99259.25
2022-09-28T12:26:48.818Z,99255.25
2022-09-28T12:30:16.806Z,99252.91
2022-09-28T12:33:19.461Z,99251.72
2022-09-28T12:36:43.976Z,99250.00
2022-09-28T12:39:58.945Z,99249.28
2022-09-28T12:43:10.632Z,99243.53
2022-09-28T12:46:50.880Z,99249.53
2022-09-28T12:50:54.562Z,99240.25
2022-09-28T12:54:30.563Z,99232.66
2022-09-28T12:57:46.706Z,99231.50
2022-09-28T13:00:49.376Z,99227.34
2022-09-28T13:04:04.567Z,99223.50
2022-09-28T13:07:30.144Z,99222.94
2022-09-28T13:10:56.203Z,99205.88
2022-09-28T13:14:20.676Z,99207.25
2022-09-28T13:17:42.169Z,99205.41
2022-09-28T13:20:50.443Z,99202.97
2022-09-28T13:24:08.746Z,99190.34
2022-09-28T13:27:29.123Z,99172.31
2022-09-28T13:30:35.447Z,99182.66
2022-09-28T13:33:39.834Z,99187.28
2022-09-28T13:36:47.820Z,99183.00
2022-09-28T13:39:52.832Z,99162.28
2022-09-28T13:43:19.608Z,99170.16
2022-09-28T13:47:02.644Z,99167.50
2022-09-28T13:50:25.687Z,99169.22
2022-09-28T13:53:39.624Z,99162.31
2022-09-28T13:57:13.332Z,99160.66
2022-09-28T14:00:45.573Z,99151.12
2022-09-28T14:03:55.148Z,99152.81
2022-09-28T14:07:10.750Z,99147.06
2022-09-28T14:10:27.248Z,99149.97
2022-09-28T14:13:42.295Z,99146.56
2022-09-28T14:16:45.440Z,99148.63
2022-09-28T14:19:55.450Z,99156.16
2022-09-28T14:23:30.590Z,99151.03
2022-09-28T14:27:01.950Z,99148.63
2022-09-28T14:30:19.442Z,99146.00
2022-09-28T14:33:26.616Z,99159.59
2022-09-28T14:36:58.279Z,99150.75
2022-09-28T14:40:27.608Z,99148.69
2022-09-28T14:43:57.611Z,99141.81
2022-09-28T14:47:36.404Z,99139.97
2022-09-28T14:50:39.547Z,99137.31
2022-09-28T14:53:42.396Z,99119.59
2022-09-28T14:56:58.972Z,99118.47
2022-09-28T15:00:14.548Z,99120.47
2022-09-28T15:03:18.265Z,99144.09
2022-09-28T15:06:25.155Z,99142.41
2022-09-28T15:09:31.876Z,99144.09
2022-09-28T15:12:35.508Z,99154.06
2022-09-28T15:15:41.417Z,99156.16
2022-09-28T15:19:08.716Z,99158.94
2022-09-28T15:22:16.614Z,99166.22
2022-09-28T15:25:22.384Z,99175.28
2022-09-28T15:28:25.331Z,99179.84
2022-09-28T15:31:35.184Z,99186.44
2022-09-28T15:34:54.738Z,99191.16
2022-09-28T15:37:57.672Z,99194.16
2022-09-28T15:41:05.820Z,99190.03
2022-09-28T15:44:11.456Z,99191.06
2022-09-28T15:47:25.108Z,99189.53
2022-09-28T15:50:30.097Z,99185.37
2022-09-28T15:53:34.001Z,99169.78
2022-09-28T15:56:54.842Z,99141.31
2022-09-28T15:59:59.392Z,99151.22
2022-09-28T16:03:09.708Z,99170.56
2022-09-28T16:06:13.916Z,99166.81
2022-09-28T16:09:38.928Z,99170.78
2022-09-28T16:12:54.359Z,99176.50
2022-09-28T16:16:00.324Z,99174.75
2022-09-28T16:19:07.400Z,99171.41
2022-09-28T16:22:20.596Z,99180.22
2022-09-28T16:25:27.095Z,99170.97
2022-09-28T16:28:34.608Z,99170.97
2022-09-28T16:31:41.561Z,99167.88
2022-09-28T16:34:44.558Z,99171.09
2022-09-28T16:38:04.425Z,99172.03
2022-09-28T16:41:08.960Z,99173.97
2022-09-28T16:44:17.868Z,99179.75
2022-09-28T16:47:20.440Z,99178.34
2022-09-28T16:50:26.140Z,99174.97
2022-09-28T16:53:47.227Z,99168.69
2022-09-28T16:56:50.314Z,99172.97
2022-09-28T16:59:52.908Z,99172.13
2022-09-28T17:02:57.267Z,99161.09
2022-09-28T17:05:59.979Z,99168.25
2022-09-28T17:09:09.447Z,99158.12
2022-09-28T17:12:24.661Z,99165.38
2022-09-28T17:15:27.657Z,99157.59
2022-09-28T17:18:33.623Z,99165.19
2022-09-28T17:21:36.706Z,99162.09
2022-09-28T17:24:39.914Z,99169.91
2022-09-28T17:27:47.655Z,99176.28
2022-09-28T17:30:50.228Z,99163.44
2022-09-28T17:33:54.516Z,99162.72
2022-09-28T17:36:57.190Z,99174.59
2022-09-28T17:40:00.360Z,99166.12
2022-09-28T17:43:05.706Z,99165.09
2022-09-28T17:46:29.132Z,99156.94
2022-09-28T17:49:32.134Z,99153.69
2022-09-28T17:52:34.964Z,99156.38
2022-09-28T17:55:39.146Z,99156.81
2022-09-28T17:58:42.099Z,99152.56
2022-09-28T18:01:44.868Z,99164.03
2022-09-28T18:04:52.091Z,99166.00
2022-09-28T18:07:56.013Z,99172.66
2022-09-28T18:10:59.136Z,99165.56
2022-09-28T18:14:01.688Z,99172.72
2022-09-28T18:17:04.608Z,99165.56
2022-09-28T18:20:09.427Z,99164.31
2022-09-28T18:23:12.285Z,99173.38
2022-09-28T18:26:17.023Z,99184.84
2022-09-28T18:29:19.999Z,99186.91
2022-09-28T18:32:23.669Z,99179.84
2022-09-28T18:35:26.682Z,99175.91
2022-09-28T18:38:29.267Z,99166.50
2022-09-28T18:41:32.608Z,99158.66
2022-09-28T18:44:35.267Z,99136.59
2022-09-28T18:47:39.291Z,99140.56
2022-09-28T18:50:42.840Z,99142.09
2022-09-28T18:53:46.251Z,99146.94
2022-09-28T18:56:50.352Z,99150.19
2022-09-28T18:59:53.327Z,99161.91
2022-09-28T19:02:55.952Z,99162.84
2022-09-28T19:05:58.996Z,99164.03
2022-09-28T19:09:02.407Z,99172.31
2022-09-28T19:12:05.335Z,99174.28
2022-09-28T19:15:08.099Z,99179.03
2022-09-28T19:18:10.925Z,99178.75
2022-09-28T19:21:15.080Z,99177.13
2022-09-28T19:24:19.767Z,99158.19
2022-09-28T19:27:22.500Z,99158.94
2022-09-28T19:30:25.440Z,99141.66
2022-09-28T19:33:28.126Z,99164.03
2022-09-28T19:36:31.237Z,99148.88
2022-09-28T19:39:34.617Z,99165.28
2022-09-28T19:42:39.607Z,99164.41
2022-09-28T19:45:42.832Z,99167.63
2022-09-28T19:48:45.671Z,99173.56
2022-09-28T19:55:13.365Z,99172.72
2022-09-28T19:58:16.292Z,99157.41
2022-09-28T20:01:19.309Z,99155.41
2022-09-28T20:04:23.121Z,99163.19
2022-09-28T20:07:25.644Z,99153.69
2022-09-28T20:10:28.456Z,99153.00
2022-09-28T20:13:33.723Z,99162.19
2022-09-28T20:16:37.025Z,99157.81
2022-09-28T20:19:39.688Z,99163.28
2022-09-28T20:22:43.942Z,99171.53
2022-09-28T20:25:46.533Z,99186.50
2022-09-28T20:28:49.425Z,99201.84
2022-09-28T20:31:52.161Z,99189.25
2022-09-28T20:34:55.047Z,99168.78
2022-09-28T20:37:59.240Z,99169.47
2022-09-28T20:41:02.613Z,99169.47
2022-09-28T20:44:06.760Z,99166.03
2022-09-28T20:47:09.719Z,99173.41
2022-09-28T20:50:12.567Z,99158.19
2022-09-28T20:53:15.413Z,99142.09
2022-09-28T20:56:20.997Z,99148.56
2022-09-28T20:59:26.447Z,99141.81
2022-09-28T21:02:29.027Z,99141.22
2022-09-28T21:05:31.837Z,99139.66
2022-09-28T21:08:34.410Z,99140.00
2022-09-28T21:11:38.932Z,99131.41
2022-09-28T21:14:41.419Z,99122.97
2022-09-28T21:17:44.398Z,99119.78
2022-09-28T21:20:51.360Z,99129.69
2022-09-28T21:23:57.877Z,99136.03
2022-09-28T21:27:00.391Z,99142.00
2022-09-28T21:30:03.519Z,99145.63
2022-09-28T21:33:06.423Z,99127.56
2022-09-28T21:36:10.527Z,99127.62
2022-09-28T21:39:15.922Z,99116.84
2022-09-28T21:42:18.699Z,99111.25
2022-09-28T21:45:21.436Z,99109.81
2022-09-28T21:48:27.347Z,99121.56
2022-09-28T21:51:30.764Z,99133.84
2022-09-28T21:54:37.281Z,99134.69
2022-09-28T21:57:39.848Z,99131.56
2022-09-28T22:00:42.750Z,99133.06
2022-09-28T22:03:50.923Z,99129.06
2022-09-28T22:06:53.642Z,99108.87
2022-09-28T22:09:56.483Z,99107.56
2022-09-28T22:12:58.991Z,99107.56
2022-09-28T22:16:02.545Z,99100.66
2022-09-28T22:19:05.230Z,99097.75
2022-09-28T22:22:08.676Z,99106.06
2022-09-28T22:25:11.287Z,99099.56
2022-09-28T22:28:14.186Z,99121.03
2022-09-28T22:31:18.299Z,99119.56
2022-09-28T22:34:21.235Z,99147.78
2022-09-28T22:37:28.013Z,99150.62
2022-09-28T22:40:30.794Z,99144.28
2022-09-28T22:43:33.406Z,99119.78
2022-09-28T22:46:36.448Z,99107.50
2022-09-28T22:49:39.373Z,99100.69
2022-09-28T22:52:42.215Z,99099.16
2022-09-28T22:55:45.272Z,99107.81
2022-09-28T22:58:48.283Z,99097.59
2022-09-28T23:01:50.961Z,99090.91
2022-09-28T23:04:53.887Z,99095.41
2022-09-28T23:07:56.762Z,99091.97
2022-09-28T23:11:00.002Z,99089.75
2022-09-28T23:14:04.385Z,99090.59
2022-09-28T23:17:07.295Z,99085.59
2022-09-28T23:20:09.952Z,99084.03
2022-09-28T23:23:13.381Z,99074.59
2022-09-28T23:26:18.568Z,99073.72
2022-09-28T23:29:21.637Z,99083.69
2022-09-28T23:32:27.486Z,99084.88
2022-09-28T23:35:33.800Z,99077.22
2022-09-28T23:38:36.717Z,99081.13
2022-09-28T23:41:39.972Z,99078.84
2022-09-28T23:44:42.622Z,99081.03
2022-09-28T23:47:45.683Z,99078.06
2022-09-28T23:50:48.360Z,99070.75
2022-09-28T23:53:51.221Z,99086.44
2022-09-28T23:56:53.915Z,99087.75
2022-09-28T23:59:56.831Z,99074.22
